createdAt,value
2023-03-31T00:00:11.133Z,-1.81
2023-03-31T00:01:10.504Z,-1.87
2023-03-31T00:02:10.499Z,-1.86
2023-03-31T00:03:10.827Z,-1.88
2023-03-31T00:04:11.367Z,-1.89
2023-03-31T00:05:10.509Z,-1.9
2023-03-31T00:06:11.543Z,-1.9
2023-03-31T00:07:10.536Z,-1.88
2023-03-31T00:08:10.785Z,-1.89
2023-03-31T00:09:12.534Z,-1.95
2023-03-31T00:11:13.900Z,-1.96
2023-03-31T00:12:13.923Z,-1.96
2023-03-31T00:13:13.493Z,-1.96
2023-03-31T00:14:13.127Z,-1.96
2023-03-31T00:15:13.457Z,-1.91
2023-03-31T00:16:13.556Z,-1.89
2023-03-31T00:17:13.096Z,-1.89
2023-03-31T00:18:13.156Z,-1.91
2023-03-31T00:19:13.509Z,-1.87
2023-03-31T00:20:13.234Z,-1.86
2023-03-31T00:21:14.947Z,-1.87
2023-03-31T00:22:13.140Z,-1.84
2023-03-31T00:23:13.240Z,-1.83
2023-03-31T00:24:13.763Z,-1.84
2023-03-31T00:25:14.218Z,-1.87
2023-03-31T00:26:13.251Z,-1.86
2023-03-31T00:27:13.406Z,-1.87
2023-03-31T00:28:13.246Z,-1.86
2023-03-31T00:29:13.438Z,-1.88
2023-03-31T00:30:13.860Z,-1.85
2023-03-31T00:31:13.334Z,-1.86
2023-03-31T00:32:13.381Z,-1.87
2023-03-31T00:33:13.361Z,-1.86
2023-03-31T00:34:13.301Z,-1.88
2023-03-31T00:35:13.396Z,-1.86
2023-03-31T00:36:13.462Z,-1.85
2023-03-31T00:37:13.448Z,-1.86
2023-03-31T00:38:13.342Z,-1.85
2023-03-31T00:39:14.813Z,-1.84
2023-03-31T00:40:14.184Z,-1.85
2023-03-31T00:41:14.431Z,-1.85
2023-03-31T00:42:13.989Z,-1.85
2023-03-31T00:44:20.183Z,-1.86
2023-03-31T00:45:23.412Z,-1.84
2023-03-31T00:46:23.971Z,-1.85
2023-03-31T00:47:20.813Z,-1.82
2023-03-31T00:48:20.891Z,-1.82
2023-03-31T00:49:28.781Z,-1.84
2023-03-31T00:50:27.067Z,-1.82
2023-03-31T00:51:29.550Z,-1.8
2023-03-31T00:52:30.447Z,-1.81
2023-03-31T00:53:29.510Z,-1.78
2023-03-31T00:54:27.322Z,-1.75
2023-03-31T00:55:33.912Z,-1.75
2023-03-31T00:56:34.492Z,-1.73
2023-03-31T00:57:32.750Z,-1.73
2023-03-31T00:58:31.712Z,-1.7
2023-03-31T00:59:34.085Z,-1.7
2023-03-31T01:00:31.502Z,-1.66
2023-03-31T01:01:31.747Z,-1.67
2023-03-31T01:02:31.305Z,-1.63
2023-03-31T01:03:32.098Z,-1.58
2023-03-31T01:04:33.418Z,-1.63
2023-03-31T01:05:36.759Z,-1.63
2023-03-31T01:06:33.655Z,-1.64
2023-03-31T01:07:39.811Z,-1.61
2023-03-31T01:08:36.938Z,-1.64
2023-03-31T01:09:36.917Z,-1.62
2023-03-31T01:10:39.208Z,-1.63
2023-03-31T01:11:36.923Z,-1.63
2023-03-31T01:12:41.142Z,-1.65
2023-03-31T01:13:38.918Z,-1.63
2023-03-31T01:14:37.786Z,-1.65
2023-03-31T01:15:38.847Z,-1.62
2023-03-31T01:16:37.987Z,-1.61
2023-03-31T01:17:38.152Z,-1.6
2023-03-31T01:18:37.975Z,-1.61
2023-03-31T01:28:10.891Z,-1.54
2023-03-31T01:31:21.541Z,-1.51
2023-03-31T01:42:49.535Z,-1.52
2023-03-31T01:43:52.745Z,-1.5
2023-03-31T01:45:59.366Z,-1.45
2023-03-31T01:46:56.573Z,-1.44
2023-03-31T01:47:59.394Z,-1.45
2023-03-31T01:50:59.465Z,-1.43
2023-03-31T01:57:17.941Z,-1.33
2023-03-31T01:58:20.398Z,-1.3
2023-03-31T02:00:20.089Z,-1.3
2023-03-31T02:03:21.629Z,-1.3
2023-03-31T02:05:24.378Z,-1.3
2023-03-31T02:06:23.268Z,-1.32
2023-03-31T02:07:24.193Z,-1.29
2023-03-31T02:09:25.033Z,-1.26
2023-03-31T02:10:24.007Z,-1.27
2023-03-31T02:11:24.098Z,-1.28
2023-03-31T02:12:25.629Z,-1.29
2023-03-31T02:13:23.531Z,-1.27
2023-03-31T02:14:25.087Z,-1.24
2023-03-31T02:15:26.171Z,-1.26
2023-03-31T02:16:26.185Z,-1.26
2023-03-31T02:17:24.538Z,-1.27
2023-03-31T02:18:24.629Z,-1.28
2023-03-31T02:19:23.183Z,-1.27
2023-03-31T02:20:23.078Z,-1.29
2023-03-31T02:21:22.985Z,-1.28
2023-03-31T02:22:23.635Z,-1.28
2023-03-31T02:23:24.825Z,-1.25
2023-03-31T02:24:25.185Z,-1.29
2023-03-31T02:25:26.198Z,-1.28
2023-03-31T02:27:27.036Z,-1.28
2023-03-31T02:28:26.852Z,-1.29
2023-03-31T02:29:25.606Z,-1.26
2023-03-31T02:30:29.517Z,-1.27
2023-03-31T02:32:32.197Z,-1.23
2023-03-31T02:33:28.490Z,-1.25
2023-03-31T02:34:28.459Z,-1.23
2023-03-31T02:35:28.569Z,-1.22
2023-03-31T02:36:28.902Z,-1.22
2023-03-31T02:37:30.313Z,-1.2
2023-03-31T02:38:29.982Z,-1.23
2023-03-31T02:39:33.231Z,-1.24
2023-03-31T02:40:29.587Z,-1.23
2023-03-31T02:41:29.563Z,-1.22
2023-03-31T02:42:29.583Z,-1.23
2023-03-31T02:43:29.528Z,-1.24
2023-03-31T02:44:29.558Z,-1.23
2023-03-31T02:46:32.787Z,-1.21
2023-03-31T02:47:32.831Z,-1.19
2023-03-31T02:48:35.354Z,-1.23
2023-03-31T02:49:32.842Z,-1.23
2023-03-31T02:50:39.581Z,-1.22
2023-03-31T02:51:46.537Z,-1.17
2023-03-31T02:52:49.008Z,-1.17
2023-03-31T02:53:48.933Z,-1.19
2023-03-31T02:57:59.649Z,-1.19
2023-03-31T03:02:10.600Z,-1.13
2023-03-31T03:14:46.157Z,-1.1
2023-03-31T03:15:50.718Z,-1.1
2023-03-31T03:16:53.733Z,-1.07
2023-03-31T03:17:51.111Z,-1.07
2023-03-31T03:18:57.497Z,-1.07
2023-03-31T03:19:54.864Z,-1.05
2023-03-31T03:20:53.745Z,-1.05
2023-03-31T03:21:53.776Z,-1.06
2023-03-31T03:22:53.772Z,-1.05
2023-03-31T03:23:53.819Z,-0.97
2023-03-31T03:24:54.271Z,-1.02
2023-03-31T03:25:54.336Z,-1.02
2023-03-31T03:26:54.392Z,-1.04
2023-03-31T03:27:54.291Z,-1.07
2023-03-31T03:28:55.421Z,-1.03
2023-03-31T03:29:54.322Z,-1.05
2023-03-31T03:30:54.393Z,-1.08
2023-03-31T03:31:54.428Z,-1.05
2023-03-31T03:32:54.404Z,-1.08
2023-03-31T03:33:54.440Z,-1.07
2023-03-31T03:34:54.415Z,-1.09
2023-03-31T03:35:54.487Z,-1.01
2023-03-31T03:36:54.501Z,-1.04
2023-03-31T03:37:54.659Z,-1.04
2023-03-31T03:38:54.503Z,-1.04
2023-03-31T03:39:54.846Z,-1.03
2023-03-31T03:40:54.513Z,-1.03
2023-03-31T03:41:54.545Z,-1.02
2023-03-31T03:42:54.584Z,-1.02
2023-03-31T03:43:54.605Z,-1.01
2023-03-31T03:44:54.622Z,-1.01
2023-03-31T03:45:54.683Z,-0.99
2023-03-31T03:46:54.621Z,-1
2023-03-31T03:47:54.733Z,-0.96
2023-03-31T03:48:54.913Z,-0.96
2023-03-31T03:49:54.675Z,-0.9
2023-03-31T03:50:54.671Z,-0.9
2023-03-31T03:51:54.710Z,-0.88
2023-03-31T03:52:54.726Z,-0.93
2023-03-31T03:53:54.720Z,-0.94
2023-03-31T03:54:54.749Z,-0.92
2023-03-31T03:55:54.885Z,-0.89
2023-03-31T03:56:55.121Z,-0.87
2023-03-31T03:57:54.848Z,-0.87
2023-03-31T03:58:54.835Z,-0.85
2023-03-31T03:59:54.846Z,-0.84
2023-03-31T04:00:54.858Z,-0.89
2023-03-31T04:01:55.404Z,-0.87
2023-03-31T04:02:55.461Z,-0.86
2023-03-31T04:03:55.347Z,-0.88
2023-03-31T04:04:55.429Z,-0.85
2023-03-31T04:05:55.388Z,-0.86
2023-03-31T04:06:55.410Z,-0.85
2023-03-31T04:07:55.508Z,-0.84
2023-03-31T04:08:55.467Z,-0.83
2023-03-31T04:09:55.443Z,-0.8
2023-03-31T04:10:55.484Z,-0.84
2023-03-31T04:11:55.506Z,-0.78
2023-03-31T04:12:55.545Z,-0.79
2023-03-31T04:13:55.535Z,-0.8
2023-03-31T04:14:55.586Z,-0.79
2023-03-31T04:15:55.632Z,-0.8
2023-03-31T04:16:55.606Z,-0.82
2023-03-31T04:17:55.645Z,-0.84
2023-03-31T04:18:55.606Z,-0.82
2023-03-31T04:19:55.659Z,-0.82
2023-03-31T04:20:55.665Z,-0.8
2023-03-31T04:21:55.672Z,-0.74
2023-03-31T04:22:55.895Z,-0.75
2023-03-31T04:23:56.065Z,-0.74
2023-03-31T04:24:55.745Z,-0.73
2023-03-31T04:25:55.757Z,-0.74
2023-03-31T04:26:56.091Z,-0.73
2023-03-31T04:27:55.788Z,-0.71
2023-03-31T04:28:55.869Z,-0.7
2023-03-31T04:29:55.769Z,-0.7
2023-03-31T04:30:55.829Z,-0.7
2023-03-31T04:31:56.138Z,-0.72
2023-03-31T04:32:57.524Z,-0.73
2023-03-31T04:33:56.247Z,-0.7
2023-03-31T04:34:55.913Z,-0.68
2023-03-31T04:35:55.975Z,-0.66
2023-03-31T04:36:55.908Z,-0.65
2023-03-31T04:37:55.923Z,-0.65
2023-03-31T04:38:55.995Z,-0.66
2023-03-31T04:39:55.958Z,-0.65
2023-03-31T04:40:55.959Z,-0.61
2023-03-31T04:41:56.804Z,-0.62
2023-03-31T04:42:56.003Z,-0.59
2023-03-31T04:43:56.092Z,-0.58
2023-03-31T04:44:56.056Z,-0.57
2023-03-31T04:45:56.097Z,-0.56
2023-03-31T04:46:56.258Z,-0.55
2023-03-31T04:47:56.238Z,-0.5
2023-03-31T04:48:56.167Z,-0.51
2023-03-31T04:49:56.161Z,-0.48
2023-03-31T04:50:56.160Z,-0.49
2023-03-31T04:51:56.145Z,-0.43
2023-03-31T04:52:56.224Z,-0.43
2023-03-31T04:53:56.301Z,-0.4
2023-03-31T04:54:56.230Z,-0.4
2023-03-31T04:55:56.223Z,-0.39
2023-03-31T04:56:57.698Z,-0.44
2023-03-31T04:57:56.269Z,-0.37
2023-03-31T04:58:56.392Z,-0.37
2023-03-31T04:59:56.270Z,-0.34
2023-03-31T05:00:56.466Z,-0.34
2023-03-31T05:01:59.511Z,-0.38
2023-03-31T05:02:56.409Z,-0.38
2023-03-31T05:03:56.440Z,-0.26
2023-03-31T05:04:56.398Z,-0.3
2023-03-31T05:05:56.414Z,-0.27
2023-03-31T05:06:56.402Z,-0.24
2023-03-31T05:07:56.407Z,-0.31
2023-03-31T05:08:56.493Z,-0.29
2023-03-31T05:09:56.443Z,-0.29
2023-03-31T05:10:56.706Z,-0.29
2023-03-31T05:11:56.906Z,-0.29
2023-03-31T05:12:56.745Z,-0.35
2023-03-31T05:13:56.614Z,-0.27
2023-03-31T05:14:56.570Z,-0.3
2023-03-31T05:15:56.578Z,-0.24
2023-03-31T05:16:56.638Z,-0.27
2023-03-31T05:17:57.627Z,-0.27
2023-03-31T05:18:56.677Z,-0.3
2023-03-31T05:19:56.667Z,-0.26
2023-03-31T05:20:56.633Z,-0.3
2023-03-31T05:21:56.917Z,-0.26
2023-03-31T05:22:56.640Z,-0.26
2023-03-31T05:23:57.367Z,-0.27
2023-03-31T05:24:56.688Z,-0.24
2023-03-31T05:25:56.692Z,-0.25
2023-03-31T05:26:56.758Z,-0.27
2023-03-31T05:27:56.744Z,-0.27
2023-03-31T05:28:56.799Z,-0.27
2023-03-31T05:29:56.770Z,-0.26
2023-03-31T05:30:58.976Z,-0.25
2023-03-31T05:31:56.852Z,-0.22
2023-03-31T05:32:56.809Z,-0.21
2023-03-31T05:33:56.860Z,-0.18
2023-03-31T05:34:56.885Z,-0.21
2023-03-31T05:35:56.988Z,-0.14
2023-03-31T05:36:56.939Z,-0.15
2023-03-31T05:37:56.905Z,-0.13
2023-03-31T05:38:56.928Z,-0.18
2023-03-31T05:39:57.042Z,-0.14
2023-03-31T05:40:57.146Z,-0.08
2023-03-31T05:41:56.971Z,-0.11
2023-03-31T05:42:57.007Z,-0.13
2023-03-31T05:43:57.007Z,-0.11
2023-03-31T05:44:57.083Z,-0.12
2023-03-31T05:45:57.070Z,-0.07
2023-03-31T05:46:57.075Z,-0.07
2023-03-31T05:47:57.108Z,-0.08
2023-03-31T05:48:57.206Z,-0.06
2023-03-31T05:49:57.120Z,-0.08
2023-03-31T05:51:00.163Z,-0.06
2023-03-31T05:51:57.138Z,-0.1
2023-03-31T05:52:57.110Z,-0.02
2023-03-31T05:53:57.209Z,-0.02
2023-03-31T05:54:57.445Z,-0.02
2023-03-31T05:55:58.051Z,-0.04
2023-03-31T05:56:57.261Z,-0.02
2023-03-31T05:57:57.344Z,0
2023-03-31T05:58:59.284Z,0.02
2023-03-31T05:59:57.275Z,-0.01
2023-03-31T06:01:01.036Z,-0.04
2023-03-31T06:01:57.382Z,0
2023-03-31T06:02:57.442Z,0.05
2023-03-31T06:03:57.393Z,0.07
2023-03-31T06:04:58.301Z,0.1
2023-03-31T06:05:57.410Z,0.06
2023-03-31T06:06:57.789Z,0.03
2023-03-31T06:07:57.535Z,0.06
2023-03-31T06:08:57.930Z,0.07
2023-03-31T06:09:57.450Z,0.05
2023-03-31T06:10:59.067Z,0.12
2023-03-31T06:11:57.514Z,0.09
2023-03-31T06:12:57.476Z,0.18
2023-03-31T06:13:57.533Z,0.2
2023-03-31T06:14:57.529Z,0.18
2023-03-31T06:15:58.503Z,0.12
2023-03-31T06:16:58.100Z,0.11
2023-03-31T06:17:57.643Z,0.12
2023-03-31T06:18:57.619Z,0.06
2023-03-31T06:19:57.617Z,0.06
2023-03-31T06:20:57.656Z,0.07
2023-03-31T06:21:57.674Z,0.14
2023-03-31T06:22:57.831Z,0.16
2023-03-31T06:23:57.706Z,0.16
2023-03-31T06:24:57.713Z,0.13
2023-03-31T06:26:01.820Z,0.16
2023-03-31T06:26:58.048Z,0.18
2023-03-31T06:27:58.067Z,0.23
2023-03-31T06:28:58.068Z,0.25
2023-03-31T06:29:58.204Z,0.24
2023-03-31T06:31:02.155Z,0.28
2023-03-31T06:31:58.359Z,0.25
2023-03-31T06:32:58.425Z,0.32
2023-03-31T06:33:58.405Z,0.31
2023-03-31T06:34:58.391Z,0.31
2023-03-31T06:35:58.612Z,0.33
2023-03-31T06:36:58.448Z,0.3
2023-03-31T06:37:58.508Z,0.4
2023-03-31T06:38:58.498Z,0.49
2023-03-31T06:39:58.521Z,0.42
2023-03-31T06:40:58.554Z,0.45
2023-03-31T06:41:58.557Z,0.57
2023-03-31T06:42:59.341Z,0.6
2023-03-31T06:43:58.623Z,0.63
2023-03-31T06:44:58.575Z,0.66
2023-03-31T06:45:58.638Z,0.73
2023-03-31T06:46:58.605Z,0.7
2023-03-31T06:47:58.679Z,0.76
2023-03-31T06:48:58.776Z,0.66
2023-03-31T06:49:58.658Z,0.56
2023-03-31T06:51:02.397Z,0.63
2023-03-31T06:51:58.688Z,0.62
2023-03-31T06:52:58.702Z,0.6
2023-03-31T06:53:58.910Z,0.67
2023-03-31T06:54:58.762Z,0.67
2023-03-31T06:55:58.936Z,0.71
2023-03-31T06:56:58.785Z,0.76
2023-03-31T06:57:59.170Z,0.73
2023-03-31T06:58:59.027Z,0.78
2023-03-31T06:59:58.798Z,0.76
2023-03-31T07:00:58.927Z,0.85
2023-03-31T07:01:58.923Z,0.92
2023-03-31T07:02:59.303Z,0.91
2023-03-31T07:03:58.908Z,0.89
2023-03-31T07:04:58.938Z,0.93
2023-03-31T07:05:59.438Z,0.94
2023-03-31T07:06:59.241Z,0.88
2023-03-31T07:07:59.623Z,0.91
2023-03-31T07:08:59.008Z,0.94
2023-03-31T07:09:59.502Z,0.9
2023-03-31T07:11:00.384Z,0.83
2023-03-31T07:11:59.581Z,0.88
2023-03-31T07:12:59.602Z,0.88
2023-03-31T07:13:59.618Z,0.92
2023-03-31T07:14:59.590Z,1.03
2023-03-31T07:15:59.690Z,1.04
2023-03-31T07:16:59.635Z,0.96
2023-03-31T07:18:00.046Z,0.96
2023-03-31T07:18:59.740Z,0.98
2023-03-31T07:19:59.697Z,0.94
2023-03-31T07:20:59.725Z,0.91
2023-03-31T07:21:59.727Z,0.98
2023-03-31T07:22:59.748Z,1
2023-03-31T07:23:59.802Z,1.04
2023-03-31T07:24:59.796Z,0.99
2023-03-31T07:26:00.202Z,0.96
2023-03-31T07:27:00.227Z,0.97
2023-03-31T07:28:00.258Z,0.92
2023-03-31T07:29:00.339Z,0.95
2023-03-31T07:30:00.305Z,0.91
2023-03-31T07:31:00.301Z,0.9
2023-03-31T07:32:00.339Z,0.93
2023-03-31T07:33:01.578Z,1.02
2023-03-31T07:34:01.166Z,0.99
2023-03-31T07:35:00.387Z,0.93
2023-03-31T07:36:11.948Z,0.97
2023-03-31T07:37:04.994Z,1
2023-03-31T07:38:04.986Z,1.07
2023-03-31T07:39:05.588Z,1.11
2023-03-31T07:40:05.977Z,1.1
2023-03-31T07:41:09.093Z,1.06
2023-03-31T07:42:06.262Z,1.05
2023-03-31T07:43:06.445Z,1.2
2023-03-31T07:44:06.286Z,1.1
2023-03-31T07:45:07.362Z,1
2023-03-31T07:46:06.636Z,1.07
2023-03-31T07:47:06.356Z,1.13
2023-03-31T07:48:06.363Z,1.15
2023-03-31T07:49:06.358Z,1.11
2023-03-31T07:50:07.037Z,1.26
2023-03-31T07:51:06.526Z,1.18
2023-03-31T07:52:06.408Z,1.23
2023-03-31T07:53:06.454Z,1.36
2023-03-31T07:54:06.467Z,1.29
2023-03-31T07:55:06.694Z,1.25
2023-03-31T07:56:06.799Z,1.3
2023-03-31T07:57:06.503Z,1.27
2023-03-31T07:58:06.506Z,1.33
2023-03-31T07:59:06.553Z,1.26
2023-03-31T08:00:07.455Z,1.27
2023-03-31T08:01:06.750Z,1.34
2023-03-31T08:02:06.733Z,1.34
2023-03-31T08:03:06.684Z,1.47
2023-03-31T08:04:06.658Z,1.35
2023-03-31T08:05:07.017Z,1.36
2023-03-31T08:06:06.785Z,1.48
2023-03-31T08:07:06.628Z,1.45
2023-03-31T08:08:06.627Z,1.44
2023-03-31T08:09:06.658Z,1.48
2023-03-31T08:10:08.174Z,1.51
2023-03-31T08:11:06.911Z,1.64
2023-03-31T08:12:06.958Z,1.65
2023-03-31T08:13:06.719Z,1.71
2023-03-31T08:14:06.743Z,1.59
2023-03-31T08:15:07.296Z,1.7
2023-03-31T08:16:07.178Z,1.73
2023-03-31T08:17:06.801Z,1.7
2023-03-31T08:18:07.011Z,1.73
2023-03-31T08:19:06.828Z,1.89
2023-03-31T08:20:08.158Z,2.06
2023-03-31T08:21:07.200Z,2
2023-03-31T08:22:06.865Z,2.04
2023-03-31T08:23:06.858Z,2.08
2023-03-31T08:24:07.200Z,2.11
2023-03-31T08:25:07.923Z,2.11
2023-03-31T08:26:11.268Z,2.15
2023-03-31T08:27:11.993Z,2.21
2023-03-31T08:28:08.600Z,2.18
2023-03-31T08:29:08.630Z,2.17
2023-03-31T08:30:10.129Z,2.15
2023-03-31T08:31:09.052Z,2.21
2023-03-31T08:32:08.767Z,2.11
2023-03-31T08:33:08.843Z,2.14
2023-03-31T08:34:08.766Z,2.3
2023-03-31T08:35:09.167Z,2.36
2023-03-31T08:36:09.647Z,2.22
2023-03-31T08:37:09.393Z,2.24
2023-03-31T08:38:08.783Z,2.27
2023-03-31T08:39:08.791Z,2.36
2023-03-31T08:40:14.723Z,2.42
2023-03-31T08:42:16.338Z,2.48
2023-03-31T08:43:15.436Z,2.51
2023-03-31T08:46:19.713Z,2.59
2023-03-31T08:47:21.468Z,2.7
2023-03-31T08:49:22.000Z,2.69
2023-03-31T08:52:33.519Z,2.89
2023-03-31T08:53:32.826Z,2.78
2023-03-31T08:54:34.402Z,2.79
2023-03-31T08:55:43.809Z,2.88
2023-03-31T08:56:36.800Z,2.97
2023-03-31T08:57:40.091Z,2.91
2023-03-31T08:58:44.424Z,2.98
2023-03-31T08:59:41.273Z,3.01
2023-03-31T09:00:46.985Z,3.06
2023-03-31T09:01:56.662Z,3.18
2023-03-31T09:02:50.603Z,3.21
2023-03-31T09:06:00.166Z,3.3
2023-03-31T09:09:01.978Z,3.52
2023-03-31T09:11:08.105Z,3.6
2023-03-31T09:12:11.518Z,3.54
2023-03-31T09:13:22.511Z,3.52
2023-03-31T09:15:14.728Z,3.41
2023-03-31T09:16:16.298Z,3.49
2023-03-31T09:22:31.786Z,3.63
2023-03-31T09:23:33.523Z,3.59
2023-03-31T09:24:34.133Z,3.65
2023-03-31T09:25:38.945Z,3.62
2023-03-31T09:27:39.323Z,3.82
2023-03-31T09:28:38.980Z,3.79
2023-03-31T09:30:38.153Z,3.91
2023-03-31T09:31:38.670Z,3.73
2023-03-31T09:32:38.505Z,3.8
2023-03-31T09:33:42.478Z,3.87
2023-03-31T09:34:38.720Z,3.87
2023-03-31T09:35:38.953Z,3.66
2023-03-31T09:36:39.054Z,3.6
2023-03-31T09:37:39.373Z,3.53
2023-03-31T09:38:40.190Z,3.6
2023-03-31T09:39:39.916Z,3.72
2023-03-31T09:40:39.608Z,3.71
2023-03-31T09:41:42.342Z,3.78
2023-03-31T09:42:39.411Z,3.71
2023-03-31T09:43:40.652Z,3.55
2023-03-31T09:44:40.215Z,3.61
2023-03-31T09:45:39.386Z,3.59
2023-03-31T09:46:39.429Z,3.72
2023-03-31T09:47:42.144Z,3.6
2023-03-31T09:48:39.876Z,3.5
2023-03-31T09:49:40.523Z,3.45
2023-03-31T09:51:45.382Z,3.6
2023-03-31T09:53:48.673Z,3.6
2023-03-31T09:54:48.717Z,3.58
2023-03-31T09:55:49.300Z,3.62
2023-03-31T09:56:46.993Z,3.58
2023-03-31T09:57:45.744Z,3.58
2023-03-31T09:58:45.878Z,3.4
2023-03-31T09:59:50.222Z,3.48
2023-03-31T10:01:51.727Z,3.53
2023-03-31T10:02:59.193Z,3.52
2023-03-31T10:03:52.137Z,3.46
2023-03-31T10:04:51.152Z,3.48
2023-03-31T10:05:52.153Z,3.49
2023-03-31T10:06:51.673Z,3.6
2023-03-31T10:07:51.459Z,3.52
2023-03-31T10:09:55.631Z,3.59
2023-03-31T10:10:57.077Z,3.54
2023-03-31T10:11:56.797Z,3.7
2023-03-31T10:12:55.261Z,3.76
2023-03-31T10:16:03.075Z,3.82
2023-03-31T10:17:04.196Z,3.66
2023-03-31T10:18:02.288Z,3.68
2023-03-31T10:20:17.799Z,3.8
2023-03-31T10:21:20.506Z,3.83
2023-03-31T10:22:16.608Z,3.9
2023-03-31T10:24:20.490Z,3.89
2023-03-31T10:25:20.509Z,4.08
2023-03-31T10:26:19.443Z,3.96
2023-03-31T10:27:25.050Z,3.99
2023-03-31T10:28:22.495Z,4.13
2023-03-31T10:29:25.326Z,4
2023-03-31T10:30:34.059Z,4.17
2023-03-31T10:31:26.641Z,4.11
2023-03-31T10:32:27.296Z,4.11
2023-03-31T10:33:26.701Z,4.21
2023-03-31T10:34:25.836Z,4.16
2023-03-31T10:35:29.309Z,4.09
2023-03-31T10:36:27.439Z,4
2023-03-31T10:37:28.412Z,3.73
2023-03-31T10:38:27.889Z,3.95
2023-03-31T10:39:29.365Z,3.85
2023-03-31T10:40:30.605Z,3.82
2023-03-31T10:41:29.427Z,3.76
2023-03-31T10:42:27.614Z,3.83
2023-03-31T10:43:29.270Z,3.73
2023-03-31T10:44:34.393Z,3.85
2023-03-31T10:45:38.350Z,3.7
2023-03-31T10:46:42.721Z,3.8
2023-03-31T10:47:40.260Z,3.8
2023-03-31T10:48:40.325Z,3.65
2023-03-31T10:49:40.677Z,3.72
2023-03-31T10:50:42.709Z,3.75
2023-03-31T10:51:48.147Z,3.69
2023-03-31T10:52:44.144Z,3.95
2023-03-31T10:53:50.497Z,3.81
2023-03-31T10:54:49.269Z,3.75
2023-03-31T10:57:00.730Z,3.95
2023-03-31T10:57:55.781Z,3.84
2023-03-31T11:05:30.021Z,3.79
2023-03-31T11:14:44.758Z,3.57
2023-03-31T11:16:52.984Z,3.55
2023-03-31T11:25:07.910Z,3.87
2023-03-31T11:26:09.159Z,3.84
2023-03-31T11:30:24.455Z,4
2023-03-31T11:32:32.500Z,3.8
2023-03-31T11:33:36.406Z,3.86
2023-03-31T11:36:40.655Z,3.89
2023-03-31T11:43:48.694Z,3.54
2023-03-31T11:47:55.392Z,3.5
2023-03-31T11:48:54.757Z,3.54
2023-03-31T11:49:54.485Z,3.47
2023-03-31T11:50:52.344Z,3.58
2023-03-31T11:51:56.538Z,3.71
2023-03-31T11:53:56.536Z,3.68
2023-03-31T11:55:05.382Z,3.6
2023-03-31T11:55:57.750Z,3.56
2023-03-31T11:56:58.395Z,3.51
2023-03-31T11:58:03.868Z,3.6
2023-03-31T11:59:03.072Z,3.74
2023-03-31T12:00:04.696Z,3.8
2023-03-31T12:01:10.026Z,3.73
2023-03-31T12:02:15.863Z,3.72
2023-03-31T12:03:12.080Z,3.7
2023-03-31T12:04:09.757Z,3.75
2023-03-31T12:05:09.386Z,3.73
2023-03-31T12:06:11.791Z,3.92
2023-03-31T12:08:15.804Z,3.96
2023-03-31T12:11:23.938Z,3.7
2023-03-31T12:14:30.817Z,3.76
2023-03-31T12:15:32.378Z,3.75
2023-03-31T12:17:32.291Z,3.61
2023-03-31T12:21:38.467Z,3.39
2023-03-31T12:23:41.687Z,3.47
2023-03-31T12:24:39.369Z,3.52
2023-03-31T12:27:46.493Z,3.33
2023-03-31T12:28:44.407Z,3.4
2023-03-31T12:29:46.667Z,3.47
2023-03-31T12:30:44.536Z,3.36
2023-03-31T12:31:44.076Z,3.29
2023-03-31T12:32:45.890Z,3.25
2023-03-31T12:33:45.563Z,3.3
2023-03-31T12:34:47.391Z,3.23
2023-03-31T12:52:35.048Z,3.24
2023-03-31T12:57:41.511Z,3.12
2023-03-31T12:58:43.002Z,3.22
2023-03-31T12:59:44.125Z,3.22
2023-03-31T13:03:53.671Z,3.1
2023-03-31T13:04:52.653Z,3.17
2023-03-31T13:05:52.562Z,3.16
2023-03-31T13:06:53.798Z,3.14
2023-03-31T13:07:52.545Z,3.1
2023-03-31T13:08:56.861Z,3.19
2023-03-31T13:10:58.475Z,3.15
2023-03-31T13:11:54.836Z,3.05
2023-03-31T13:14:01.122Z,3.05
2023-03-31T13:14:57.574Z,3.16
2023-03-31T13:15:58.185Z,3.18
2023-03-31T13:18:03.965Z,3.19
2023-03-31T13:19:02.556Z,3.25
2023-03-31T13:22:04.855Z,3.29
2023-03-31T13:23:13.830Z,3.4
2023-03-31T13:24:06.826Z,3.44
2023-03-31T13:29:20.235Z,3.43
2023-03-31T13:31:21.488Z,3.34
2023-03-31T13:32:25.393Z,3.35
2023-03-31T13:34:23.285Z,3.38
2023-03-31T13:37:37.433Z,3.23
2023-03-31T13:41:45.831Z,3.18
2023-03-31T13:45:03.196Z,3.14
2023-03-31T13:46:01.378Z,3.2
2023-03-31T13:52:20.576Z,2.98
2023-03-31T13:55:28.416Z,2.93
2023-03-31T14:05:56.863Z,2.83
2023-03-31T14:06:56.909Z,2.76
2023-03-31T14:07:55.639Z,2.79
2023-03-31T14:08:56.753Z,2.76
2023-03-31T14:09:53.798Z,2.76
2023-03-31T14:10:53.779Z,2.72
2023-03-31T14:11:53.782Z,2.74
2023-03-31T14:14:02.860Z,2.82
2023-03-31T14:14:59.112Z,2.73
2023-03-31T14:15:59.723Z,2.7
2023-03-31T14:17:00.705Z,2.64
2023-03-31T14:17:59.320Z,2.64
2023-03-31T14:19:08.184Z,2.68
2023-03-31T14:31:43.180Z,2.68
2023-03-31T14:32:42.969Z,2.59
2023-03-31T14:37:53.508Z,2.54
2023-03-31T14:38:50.223Z,2.53
2023-03-31T14:39:51.751Z,2.51
2023-03-31T14:40:51.637Z,2.52
2023-03-31T14:41:52.100Z,2.57
2023-03-31T14:42:50.300Z,2.5
2023-03-31T14:43:50.764Z,2.53
2023-03-31T14:44:55.049Z,2.51
2023-03-31T14:46:01.120Z,2.48
2023-03-31T14:46:56.018Z,2.48
2023-03-31T14:47:53.787Z,2.45
2023-03-31T14:48:52.843Z,2.44
2023-03-31T14:50:03.101Z,2.4
2023-03-31T14:51:00.427Z,2.55
2023-03-31T14:52:00.715Z,2.45
2023-03-31T14:52:57.398Z,2.44
2023-03-31T14:53:58.087Z,2.43
2023-03-31T14:54:58.717Z,2.45
2023-03-31T14:56:04.456Z,2.43
2023-03-31T14:57:01.266Z,2.46
2023-03-31T14:58:01.926Z,2.37
2023-03-31T14:59:01.815Z,2.37
2023-03-31T15:00:02.664Z,2.34
2023-03-31T15:01:02.800Z,2.37
2023-03-31T15:02:03.490Z,2.38
2023-03-31T15:03:02.589Z,2.37
2023-03-31T15:04:05.946Z,2.31
2023-03-31T15:05:03.715Z,2.31
2023-03-31T15:06:04.364Z,2.32
2023-03-31T15:07:03.201Z,2.33
2023-03-31T15:08:07.437Z,2.38
2023-03-31T15:09:04.332Z,2.44
2023-03-31T15:10:05.191Z,2.42
2023-03-31T15:11:16.512Z,2.42
2023-03-31T15:12:07.332Z,2.34
2023-03-31T15:13:08.463Z,2.34
2023-03-31T15:14:06.384Z,2.3
2023-03-31T15:15:06.023Z,2.27
2023-03-31T15:17:06.197Z,2.28
2023-03-31T15:18:06.289Z,2.27
2023-03-31T15:21:10.346Z,2.34
2023-03-31T15:24:15.065Z,2.24
2023-03-31T15:25:15.013Z,2.24
2023-03-31T15:26:15.920Z,2.23
2023-03-31T15:28:17.996Z,2.2
2023-03-31T15:29:19.859Z,2.2
2023-03-31T15:30:18.769Z,2.25
2023-03-31T15:31:17.328Z,2.21
2023-03-31T15:32:24.746Z,2.19
2023-03-31T15:33:28.943Z,2.19
2023-03-31T15:34:32.931Z,2.2
2023-03-31T15:35:31.593Z,2.19
2023-03-31T15:36:30.352Z,2.15
2023-03-31T15:37:38.911Z,2.19
2023-03-31T15:38:30.191Z,2.19
2023-03-31T15:39:32.177Z,2.18
2023-03-31T15:40:37.410Z,2.17
2023-03-31T15:41:33.731Z,2.19
2023-03-31T15:42:35.778Z,2.18
2023-03-31T15:45:45.354Z,2.19
2023-03-31T15:47:52.778Z,2.19
2023-03-31T15:48:50.150Z,2.22
2023-03-31T15:49:48.350Z,2.2
2023-03-31T15:50:47.161Z,2.19
2023-03-31T15:51:47.534Z,2.17
2023-03-31T15:52:48.345Z,2.19
2023-03-31T15:53:48.412Z,2.18
2023-03-31T15:54:46.922Z,2.19
2023-03-31T15:55:46.952Z,2.17
2023-03-31T15:56:47.021Z,2.21
2023-03-31T15:57:47.205Z,2.16
2023-03-31T15:58:52.701Z,2.19
2023-03-31T15:59:55.888Z,2.25
2023-03-31T16:00:54.496Z,2.25
2023-03-31T16:01:55.178Z,2.21
2023-03-31T16:02:53.752Z,2.31
2023-03-31T16:03:54.259Z,2.27
2023-03-31T16:04:55.381Z,2.26
2023-03-31T16:05:55.561Z,2.26
2023-03-31T16:06:56.849Z,2.28
2023-03-31T16:07:53.681Z,2.26
2023-03-31T16:08:58.482Z,2.23
2023-03-31T16:09:59.629Z,2.24
2023-03-31T16:11:01.944Z,2.28
2023-03-31T16:12:01.316Z,2.29
2023-03-31T16:13:00.407Z,2.29
2023-03-31T16:14:00.555Z,2.31
2023-03-31T16:15:04.594Z,2.31
2023-03-31T16:16:01.404Z,2.27
2023-03-31T16:17:07.903Z,2.28
2023-03-31T16:18:10.275Z,2.24
2023-03-31T16:19:08.904Z,2.25
2023-03-31T16:20:16.472Z,2.26
2023-03-31T16:21:08.957Z,2.26
2023-03-31T16:22:13.662Z,2.24
2023-03-31T16:23:15.818Z,2.26
2023-03-31T16:24:13.566Z,2.25
2023-03-31T16:25:14.186Z,2.27
2023-03-31T16:26:12.680Z,2.29
2023-03-31T16:27:13.567Z,2.25
2023-03-31T16:28:17.157Z,2.26
2023-03-31T16:29:19.978Z,2.26
2023-03-31T16:30:18.303Z,2.28
2023-03-31T16:32:20.066Z,2.3
2023-03-31T16:33:21.304Z,2.27
2023-03-31T16:34:20.056Z,2.3
2023-03-31T16:35:20.005Z,2.23
2023-03-31T16:36:20.028Z,2.28
2023-03-31T16:37:20.119Z,2.24
2023-03-31T16:38:20.955Z,2.24
2023-03-31T16:39:20.096Z,2.23
2023-03-31T16:40:20.093Z,2.23
2023-03-31T16:41:20.776Z,2.22
2023-03-31T16:42:20.497Z,2.22
2023-03-31T16:43:21.387Z,2.21
2023-03-31T16:44:20.100Z,2.17
2023-03-31T16:45:20.277Z,2.17
2023-03-31T16:46:21.456Z,2.16
2023-03-31T16:47:34.091Z,2.14
2023-03-31T16:48:23.102Z,2.14
2023-03-31T16:49:22.093Z,2.18
2023-03-31T16:50:21.866Z,2.16
2023-03-31T16:51:23.873Z,2.17
2023-03-31T16:52:21.956Z,2.13
2023-03-31T16:53:23.049Z,2.17
2023-03-31T16:54:21.877Z,2.16
2023-03-31T16:55:21.905Z,2.11
2023-03-31T16:56:23.386Z,2.14
2023-03-31T16:57:22.020Z,2.11
2023-03-31T16:58:21.895Z,2.12
2023-03-31T16:59:22.005Z,2.19
2023-03-31T17:00:22.006Z,2.15
2023-03-31T17:01:22.125Z,2.09
2023-03-31T17:02:22.089Z,2.09
2023-03-31T17:03:22.319Z,2.1